Disclaimer

Please do not use the information listed here in-flight or in-navigation, as they are not provided to us by the airports but are provided by volunteers, so they might be outdated.

Search


Regions


Airport information page

Radio informations:
INFO - 127.35 MHz

Airport informations:
Latitude: 27° 40' 29.01" N
Longitude: 054° 22' 59.80" E
Elevation: 2641 feet - 805 meters
Operating hours: From sunrise to sunset (SR-SS)
Operating agency: Civil government, landing fees and diplomatic clearance may be required
Timezone: UTC+3:30(+4:30DT)
Fuel: N/A

Runway information:
09/27 - 10334 x 148 feet< - >3150 x 45 meters

Recent METARs:
OISL 210000Z 00000KT CAVOK 10/06 Q1017
OISL 210000Z 00000KT CAVOK 10/06 Q1017
OISL 210100Z 00000KT CAVOK 10/07 Q1017

Airport on the map: